createdAt,value
2022-11-18T00:02:55.915Z,96121.75
2022-11-18T00:06:57.994Z,96126.84
2022-11-18T00:11:08.336Z,96124.97
2022-11-18T00:15:10.401Z,96134.28
2022-11-18T00:19:12.469Z,96121.94
2022-11-18T00:23:14.516Z,96116.72
2022-11-18T00:27:16.644Z,96121.75
2022-11-18T00:31:18.649Z,96120.59
2022-11-18T00:35:20.697Z,96127.38
2022-11-18T00:39:22.930Z,96116.94
2022-11-18T00:43:24.980Z,96109.00
2022-11-18T00:47:26.984Z,96112.44
2022-11-18T00:51:28.978Z,96128.22
2022-11-18T00:55:31.740Z,96128.84
2022-11-18T00:59:33.785Z,96132.63
2022-11-18T01:03:35.813Z,96125.81
2022-11-18T01:07:37.878Z,96130.41
2022-11-18T01:11:58.612Z,96146.28
2022-11-18T01:16:00.627Z,96137.91
2022-11-18T01:20:02.679Z,96140.53
2022-11-18T01:24:05.153Z,96149.31
2022-11-18T01:28:07.889Z,96149.31
2022-11-18T01:32:23.845Z,96159.97
2022-11-18T01:36:27.846Z,96156.81
2022-11-18T01:40:30.522Z,96150.97
2022-11-18T01:44:53.926Z,96164.13
2022-11-18T01:49:02.317Z,96171.31
2022-11-18T01:53:09.261Z,96171.84
2022-11-18T01:57:17.156Z,96165.50
2022-11-18T02:01:19.673Z,96155.56
2022-11-18T02:05:22.331Z,96159.91
2022-11-18T02:09:24.432Z,96180.97
2022-11-18T02:13:26.605Z,96179.75
2022-11-18T02:18:00.010Z,96168.28
2022-11-18T02:22:56.267Z,96168.66
2022-11-18T02:27:35.063Z,96177.63
2022-11-18T02:31:58.749Z,96184.00
2022-11-18T02:36:08.607Z,96188.69
2022-11-18T02:40:17.083Z,96186.06
2022-11-18T02:44:21.570Z,96186.34
2022-11-18T02:48:27.198Z,96182.56
2022-11-18T02:52:33.828Z,96190.00
2022-11-18T02:56:36.539Z,96182.09
2022-11-18T03:00:38.713Z,96181.25
2022-11-18T03:04:40.987Z,96182.94
2022-11-18T03:08:50.411Z,96178.34
2022-11-18T03:13:11.596Z,96181.31
2022-11-18T03:17:51.980Z,96185.72
2022-11-18T03:22:10.121Z,96197.94
2022-11-18T03:26:29.696Z,96199.16
2022-11-18T03:30:35.808Z,96207.00
2022-11-18T03:34:42.242Z,96207.19
2022-11-18T03:38:48.171Z,96220.03
2022-11-18T03:42:56.508Z,96225.81
2022-11-18T03:47:09.045Z,96224.50
2022-11-18T03:51:15.666Z,96227.03
2022-11-18T03:55:23.559Z,96233.59
2022-11-18T03:59:43.981Z,96240.56
2022-11-18T04:03:46.019Z,96244.19
2022-11-18T04:07:59.934Z,96245.59
2022-11-18T04:12:06.116Z,96247.09
2022-11-18T04:16:09.757Z,96249.69
2022-11-18T04:20:20.771Z,96252.22
2022-11-18T04:24:22.837Z,96261.63
2022-11-18T04:28:24.903Z,96253.63
2022-11-18T04:32:26.896Z,96263.50
2022-11-18T04:36:28.960Z,96269.94
2022-11-18T04:40:30.980Z,96264.34
2022-11-18T04:44:34.322Z,96270.84
2022-11-18T04:48:36.312Z,96278.41
2022-11-18T04:52:38.305Z,96280.00
2022-11-18T04:56:47.320Z,96280.75
2022-11-18T05:00:51.043Z,96288.19
2022-11-18T05:04:53.150Z,96290.41
2022-11-18T05:08:56.763Z,96291.72
2022-11-18T05:12:59.001Z,96292.44
2022-11-18T05:17:02.704Z,96299.84
2022-11-18T05:21:08.024Z,96297.03
2022-11-18T05:25:10.149Z,96300.28
2022-11-18T05:29:13.026Z,96308.97
2022-11-18T05:33:15.011Z,96308.97
2022-11-18T05:37:17.182Z,96319.97
2022-11-18T05:41:38.432Z,96320.81
2022-11-18T05:45:41.018Z,96330.25
2022-11-18T05:49:43.043Z,96329.28
2022-11-18T05:53:45.261Z,96333.78
2022-11-18T05:57:47.309Z,96335.06
2022-11-18T06:02:03.743Z,96344.81
2022-11-18T06:06:09.156Z,96348.69
2022-11-18T06:10:17.493Z,96347.13
2022-11-18T06:14:25.690Z,96362.88
2022-11-18T06:18:30.965Z,96366.63
2022-11-18T06:22:34.720Z,96369.25
2022-11-18T06:26:38.018Z,96376.22
2022-11-18T06:30:40.055Z,96383.22
2022-11-18T06:34:42.278Z,96379.78
2022-11-18T06:38:44.297Z,96390.69
2022-11-18T06:43:04.998Z,96388.81
2022-11-18T06:47:06.989Z,96399.19
2022-11-18T06:51:09.048Z,96404.13
2022-11-18T06:55:11.063Z,96405.81
2022-11-18T06:59:13.253Z,96417.84
2022-11-18T07:03:15.229Z,96424.28
2022-11-18T07:07:17.369Z,96431.03
2022-11-18T07:11:22.082Z,96427.38
2022-11-18T07:15:24.191Z,96434.84
2022-11-18T07:19:29.024Z,96440.63
2022-11-18T07:23:34.693Z,96442.75
2022-11-18T07:27:36.823Z,96456.66
2022-11-18T07:31:39.844Z,96457.31
2022-11-18T07:35:42.098Z,96467.13
2022-11-18T07:39:44.117Z,96471.66
2022-11-18T07:43:46.807Z,96477.31
2022-11-18T07:47:48.841Z,96487.13
2022-11-18T07:51:50.873Z,96483.81
2022-11-18T07:55:54.388Z,96488.31
2022-11-18T07:59:56.608Z,96491.47
2022-11-18T08:04:05.570Z,96504.94
2022-11-18T08:08:07.774Z,96507.06
2022-11-18T08:12:09.820Z,96517.59
2022-11-18T08:16:14.934Z,96511.06
2022-11-18T08:20:17.371Z,96508.88
2022-11-18T08:24:19.441Z,96516.44
2022-11-18T08:28:22.477Z,96518.97
2022-11-18T08:32:24.592Z,96527.25
2022-11-18T08:36:29.410Z,96527.81
2022-11-18T08:40:31.550Z,96527.53
2022-11-18T08:44:34.522Z,96531.47
2022-11-18T08:48:36.643Z,96532.84
2022-11-18T08:52:38.720Z,96530.25
2022-11-18T08:56:40.845Z,96537.34
2022-11-18T09:00:43.088Z,96539.31
2022-11-18T09:04:47.365Z,96549.81
2022-11-18T09:08:49.501Z,96549.56
2022-11-18T09:12:51.499Z,96558.63
2022-11-18T09:16:53.533Z,96562.94
2022-11-18T09:21:05.684Z,96562.84
2022-11-18T09:25:08.374Z,96571.16
2022-11-18T09:29:11.681Z,96571.97
2022-11-18T09:33:17.890Z,96570.47
2022-11-18T09:37:22.633Z,96571.38
2022-11-18T09:41:40.792Z,96585.28
2022-11-18T09:45:50.064Z,96584.28
2022-11-18T09:49:56.849Z,96594.72
2022-11-18T09:53:59.014Z,96591.50
2022-11-18T09:58:01.388Z,96589.13
2022-11-18T10:02:14.841Z,96593.63
2022-11-18T10:06:24.147Z,96591.72
2022-11-18T10:10:37.933Z,96596.59
2022-11-18T10:14:42.889Z,96590.25
2022-11-18T10:19:15.913Z,96597.00
2022-11-18T10:23:29.468Z,96598.16
2022-11-18T10:27:40.035Z,96605.31
2022-11-18T10:32:04.184Z,96618.41
2022-11-18T10:36:13.063Z,96627.56
2022-11-18T10:40:27.312Z,96622.50
2022-11-18T10:44:40.584Z,96623.56
2022-11-18T10:48:42.740Z,96626.28
2022-11-18T10:52:53.573Z,96636.47
2022-11-18T10:57:04.834Z,96641.47
2022-11-18T11:01:08.314Z,96636.13
2022-11-18T11:05:20.331Z,96635.19
2022-11-18T11:09:29.266Z,96639.47
2022-11-18T11:13:34.366Z,96643.25
2022-11-18T11:17:43.177Z,96643.75
2022-11-18T11:21:45.473Z,96646.66
2022-11-18T11:30:26.018Z,96645.06
2022-11-18T11:34:34.152Z,96653.69
2022-11-18T11:38:46.571Z,96652.44
2022-11-18T11:43:08.115Z,96653.69
2022-11-18T11:47:44.983Z,96658.22
2022-11-18T11:52:14.092Z,96659.59
2022-11-18T11:56:25.220Z,96657.06
2022-11-18T12:00:28.861Z,96659.69
2022-11-18T12:04:44.958Z,96657.38
2022-11-18T12:08:59.167Z,96653.38
2022-11-18T12:13:23.348Z,96657.34
2022-11-18T12:17:32.440Z,96666.44
2022-11-18T12:21:46.742Z,96668.44
2022-11-18T12:25:48.747Z,96679.88
2022-11-18T12:29:50.837Z,96674.63
2022-11-18T12:33:58.655Z,96677.03
2022-11-18T12:38:02.835Z,96679.06
2022-11-18T12:42:24.245Z,96674.72
2022-11-18T12:46:35.329Z,96676.44
2022-11-18T12:50:51.902Z,96672.66
2022-11-18T12:54:54.104Z,96680.44
2022-11-18T12:59:00.152Z,96674.94
2022-11-18T13:03:02.381Z,96682.88
2022-11-18T13:07:27.746Z,96687.84
2022-11-18T13:11:44.967Z,96698.75
2022-11-18T13:16:07.939Z,96697.88
2022-11-18T13:20:33.590Z,96702.25
2022-11-18T13:24:47.728Z,96705.19
2022-11-18T13:28:59.058Z,96709.22
2022-11-18T13:33:01.227Z,96705.94
2022-11-18T13:37:03.384Z,96702.28
2022-11-18T13:41:22.459Z,96705.94
2022-11-18T13:45:28.149Z,96695.91
2022-11-18T13:49:40.429Z,96706.47
2022-11-18T13:53:43.432Z,96703.28
2022-11-18T13:57:51.954Z,96709.28
2022-11-18T14:01:55.639Z,96720.34
2022-11-18T14:05:58.917Z,96712.56
2022-11-18T14:10:04.453Z,96705.00
2022-11-18T14:14:06.838Z,96719.03
2022-11-18T14:18:36.655Z,96706.88
2022-11-18T14:22:42.519Z,96707.81
2022-11-18T14:26:44.546Z,96722.59
2022-11-18T14:30:58.932Z,96722.22
2022-11-18T14:35:01.048Z,96725.00
2022-11-18T14:39:31.483Z,96730.88
2022-11-18T14:43:33.898Z,96728.81
2022-11-18T14:47:36.543Z,96732.22
2022-11-18T14:51:38.520Z,96729.03
2022-11-18T14:55:41.069Z,96741.91
2022-11-18T14:59:43.206Z,96734.59
2022-11-18T15:03:45.628Z,96747.50
2022-11-18T15:07:47.761Z,96740.47
2022-11-18T15:11:49.806Z,96748.16
2022-11-18T15:15:51.802Z,96747.34
2022-11-18T15:19:53.842Z,96748.97
2022-11-18T15:23:56.016Z,96742.56
2022-11-18T15:27:58.136Z,96749.09
2022-11-18T15:32:00.247Z,96745.16
2022-11-18T15:36:02.334Z,96745.53
2022-11-18T15:40:04.572Z,96750.44
2022-11-18T15:44:06.925Z,96763.09
2022-11-18T15:48:08.984Z,96761.88
2022-11-18T15:52:11.590Z,96768.44
2022-11-18T15:56:24.823Z,96772.34
2022-11-18T16:00:26.802Z,96783.09
2022-11-18T16:04:28.891Z,96781.22
2022-11-18T16:08:30.889Z,96782.38
2022-11-18T16:12:47.978Z,96789.81
2022-11-18T16:16:52.216Z,96795.53
2022-11-18T16:20:58.735Z,96799.69
2022-11-18T16:25:00.818Z,96800.31
2022-11-18T16:29:04.706Z,96804.16
2022-11-18T16:33:06.864Z,96808.00
2022-11-18T16:37:08.882Z,96818.06
2022-11-18T16:41:29.643Z,96818.59
2022-11-18T16:45:31.688Z,96827.06
2022-11-18T16:49:33.727Z,96826.13
2022-11-18T16:53:35.745Z,96832.47
2022-11-18T16:57:37.873Z,96839.38
2022-11-18T17:01:39.983Z,96844.06
2022-11-18T17:05:41.994Z,96852.44
2022-11-18T17:09:44.038Z,96860.91
2022-11-18T17:13:46.295Z,96864.78
2022-11-18T17:17:48.292Z,96865.41
2022-11-18T17:21:51.526Z,96859.63
2022-11-18T17:25:54.308Z,96861.81
2022-11-18T17:29:56.312Z,96853.56
2022-11-18T17:33:58.430Z,96853.13
2022-11-18T17:38:00.455Z,96856.38
2022-11-18T17:42:14.427Z,96853.59
2022-11-18T17:46:16.402Z,96850.78
2022-11-18T17:50:18.703Z,96852.69
2022-11-18T17:54:21.440Z,96848.59
2022-11-18T17:58:23.733Z,96849.50
2022-11-18T18:02:25.993Z,96855.38
2022-11-18T18:06:28.091Z,96862.94
2022-11-18T18:10:30.416Z,96864.19
2022-11-18T18:14:32.477Z,96873.78
2022-11-18T18:18:34.466Z,96876.38
2022-11-18T18:22:36.528Z,96873.72
2022-11-18T18:26:38.646Z,96879.69
2022-11-18T18:30:40.628Z,96878.00
2022-11-18T18:34:42.757Z,96879.69
2022-11-18T18:38:45.898Z,96888.13
2022-11-18T18:42:47.908Z,96888.69
2022-11-18T18:46:49.905Z,96883.06
2022-11-18T18:50:51.907Z,96883.22
2022-11-18T18:54:53.926Z,96887.72
2022-11-18T18:58:57.438Z,96888.41
2022-11-18T19:02:59.471Z,96896.59
2022-11-18T19:07:01.684Z,96887.34
2022-11-18T19:11:06.865Z,96892.19
2022-11-18T19:15:15.961Z,96905.22
2022-11-18T19:19:45.921Z,96897.66
2022-11-18T19:23:48.186Z,96901.34
2022-11-18T19:27:50.164Z,96910.81
2022-11-18T19:31:52.244Z,96907.78
2022-11-18T19:35:54.291Z,96918.16
2022-11-18T19:39:56.342Z,96918.56
2022-11-18T19:43:58.358Z,96930.22
2022-11-18T19:48:01.736Z,96932.56
2022-11-18T19:52:03.815Z,96936.44
2022-11-18T19:56:09.248Z,96935.53
2022-11-18T20:00:11.781Z,96927.44
2022-11-18T20:04:15.661Z,96945.25
2022-11-18T20:08:24.829Z,96940.94
2022-11-18T20:12:27.894Z,96938.44
2022-11-18T20:16:29.951Z,96944.34
2022-11-18T20:20:34.173Z,96932.16
2022-11-18T20:24:36.178Z,96934.13
2022-11-18T20:28:40.037Z,96943.56
2022-11-18T20:32:42.081Z,96956.41
2022-11-18T20:36:44.467Z,96952.03
2022-11-18T20:40:46.514Z,96954.22
2022-11-18T20:44:48.488Z,96957.88
2022-11-18T20:48:50.926Z,96964.94
2022-11-18T20:52:53.437Z,96963.03
2022-11-18T20:56:55.450Z,96968.56
2022-11-18T21:01:01.557Z,96969.34
2022-11-18T21:05:04.301Z,96975.09
2022-11-18T21:09:06.655Z,96972.22
2022-11-18T21:13:27.363Z,96980.94
2022-11-18T21:17:29.378Z,96981.31
2022-11-18T21:21:51.943Z,96984.69
2022-11-18T21:25:53.987Z,96984.75
2022-11-18T21:29:55.968Z,96989.47
2022-11-18T21:33:58.034Z,96995.38
2022-11-18T21:38:03.744Z,96999.41
2022-11-18T21:42:05.739Z,96999.75
2022-11-18T21:46:13.581Z,96999.44
2022-11-18T21:50:15.899Z,96997.03
2022-11-18T21:54:18.408Z,96994.97
2022-11-18T21:58:20.575Z,96999.03
2022-11-18T22:02:22.718Z,96992.97
2022-11-18T22:06:26.321Z,97005.06
2022-11-18T22:10:28.378Z,96999.91
2022-11-18T22:14:30.358Z,96996.38
2022-11-18T22:18:34.858Z,97005.72
2022-11-18T22:22:36.888Z,97010.03
2022-11-18T22:26:38.865Z,97011.84
2022-11-18T22:30:40.856Z,97009.00
2022-11-18T22:34:43.840Z,97015.22
2022-11-18T22:38:48.263Z,97013.56
2022-11-18T22:42:50.522Z,97023.06
2022-11-18T22:46:52.952Z,97037.84
2022-11-18T22:51:02.796Z,97039.16
2022-11-18T22:55:05.151Z,97052.19
2022-11-18T22:59:07.176Z,97054.19
2022-11-18T23:03:09.160Z,97060.34
2022-11-18T23:07:11.267Z,97068.88
2022-11-18T23:11:35.971Z,97072.06
2022-11-18T23:15:38.093Z,97088.09
2022-11-18T23:19:43.520Z,97092.22
2022-11-18T23:23:47.044Z,97096.00
2022-11-18T23:27:53.951Z,97092.31
2022-11-18T23:31:56.297Z,97099.09
2022-11-18T23:35:58.433Z,97099.19
2022-11-18T23:40:00.397Z,97098.00
2022-11-18T23:44:02.669Z,97088.09
2022-11-18T23:48:04.850Z,97089.88
2022-11-18T23:52:06.858Z,97074.69
2022-11-18T23:56:15.115Z,97083.97
